Luz, Brazil
Current Conditions -  °F | °C
As of 3:00 PM on Thursday 18 Dec 2014 (Local Time) from SBPR Reporting Station
Broken Clouds Broken Clouds  
Wind Chill: 86°   Ceiling: 2500
Heat Index: 86°   Visibility: 6mi
Dew Point: 61°   Wind: 9mph
Humidity: 43%   Direction: 90°E
Pressure: 29.94"   Gusts: NA
Location:  19.8°S, 45.69°W
Report Text: SBPR 181700Z 09008KT 9999 BKN025 30/16 Q1014
Loading
Personal Weather Stations






























Interactive Weather Map New forecast layout! Learn more

10-Day Weather Forecast

Advertisements
Track Severe Weather on mobile